Santa Eulalia — EA8982 — position and weather

sailwx.info

Track history (hours):
 
Tides and Currents Weather Stations Pressure Air Temp Water Temp Dewpoint Dewpoint Depression Visibility Wind Speed Wind Dir Waves Ship Positions

Santa Eulalia

Last reported at 2017-Oct-18 17:31 UTC. Time now 2017-Oct-18 22:37 UTC.
Position N 38°59' E 001°32'.

Length 18 m.

Type: Passenger vessel. MMSI: 224005530.

Date/timePositionNaut miles runAvg speedWind from/ knotsBaromVisibWave heightAir tempDewpointWater temp
2017-Oct-18 17:31N 38°59' E 001°32'0 0.0
2017-Oct-18 17:30N 38°59' E 001°32'1 2.4
2017-Oct-18 16:54N 38°59' E 001°34'4 7.7
2017-Oct-18 16:25N 38°56' E 001°32'6 0.8
2017-Oct-18 09:24N 38°51' E 001°27'511.4
2017-Oct-18 08:59N 38°55' E 001°31'4 7.8
2017-Oct-18 08:30N 38°59' E 001°32'2 2.2
2017-Oct-18 07:47N 38°59' E 001°34'2 5.6
2017-Oct-18 07:30N 38°59' E 001°32'2 3.5
2017-Oct-18 06:59N 38°57' E 001°32'2 0.1
2017-Oct-17 17:12N 38°59' E 001°32'1 3.5
2017-Oct-17 17:00N 38°59' E 001°33'1 1.8
2017-Oct-17 16:29N 38°59' E 001°32'4 7.3
2017-Oct-17 15:53N 38°55' E 001°29'3 6.9
2017-Oct-17 15:31N 38°55' E 001°26'4 7.9
2017-Oct-17 15:00N 38°56' E 001°31'3 5.9
2017-Oct-17 14:30N 38°59' E 001°32'5 7.1
2017-Oct-17 13:50N 38°55' E 001°29'2 6.4
2017-Oct-17 13:28N 38°55' E 001°26'0 0.0
2017-Oct-17 12:45N 38°55' E 001°26'0 0.2
2017-Oct-17 12:30N 38°55' E 001°26'5 6.4
2017-Oct-17 11:39N 38°58' E 001°32'1 9.2
2017-Oct-17 11:30N 38°59' E 001°32'2 2.2
2017-Oct-17 10:46N 38°59' E 001°34'2 5.9
2017-Oct-17 10:29N 38°59' E 001°32'4 7.7
2017-Oct-17 10:00N 38°56' E 001°30'3 6.3
2017-Oct-17 09:29N 38°55' E 001°26'5 7.4
2017-Oct-17 08:45N 38°58' E 001°32'1 4.9
2017-Oct-17 08:28N 38°59' E 001°32'0 0.4
2017-Oct-17 08:01N 38°59' E 001°32'0 0.0
2017-Oct-17 07:31N 38°59' E 001°32'0 0.0
2017-Oct-16 17:13N 38°59' E 001°32'0 1.6
2017-Oct-16 17:00N 38°59' E 001°33'1 1.1
2017-Oct-16 16:30N 38°59' E 001°32'2 0.9
2017-Oct-16 14:42N 38°57' E 001°32'2 8.0
2017-Oct-16 14:30N 38°59' E 001°32'0 0.1
2017-Oct-16 13:30N 38°59' E 001°32'6 3.4
2017-Oct-16 11:39N 38°55' E 001°26'1 7.8
2017-Oct-16 11:29N 38°54' E 001°28'5 8.6
2017-Oct-16 10:56N 38°57' E 001°32'0 0.4
2017-Oct-16 10:30N 38°57' E 001°32'4 7.6
2017-Oct-16 10:01N 38°55' E 001°29'1 2.8
2017-Oct-16 09:30N 38°55' E 001°27'5 6.9
2017-Oct-16 08:47N 38°57' E 001°32'2 5.9
2017-Oct-16 08:30N 38°59' E 001°32'1 2.3
2017-Oct-16 08:00N 38°59' E 001°34'1 1.9
2017-Oct-16 07:30N 38°59' E 001°32'0 0.0
2017-Oct-14 17:11N 38°59' E 001°32'1 4.1
2017-Oct-14 17:00N 38°59' E 001°33'1 2.0
2017-Oct-14 16:31N 38°59' E 001°32'2 2.6
2017-Oct-14 15:48N 38°59' E 001°35'2 6.2
2017-Oct-14 15:30N 38°59' E 001°32'3 5.5
2017-Oct-14 14:59N 38°56' E 001°31'4 8.8
2017-Oct-14 14:30N 38°55' E 001°26'6 6.5
2017-Oct-14 13:39N 38°58' E 001°32'1 6.2
2017-Oct-14 13:27N 38°59' E 001°32'1 0.8
2017-Oct-14 11:42N 38°59' E 001°34'1 6.7
2017-Oct-14 11:29N 38°59' E 001°32'2 2.2
2017-Oct-14 10:45N 38°59' E 001°34'2 6.0
2017-Oct-14 10:29N 38°59' E 001°32'5 6.8
2017-Oct-14 09:49N 38°55' E 001°29'2 7.3
2017-Oct-14 09:29N 38°55' E 001°26'5 6.6
2017-Oct-14 08:39N 38°58' E 001°32'1 9.6
2017-Oct-14 08:30N 38°59' E 001°32'2 2.0
2017-Oct-14 07:43N 38°59' E 001°34'1 7.2
2017-Oct-14 07:30N 38°59' E 001°32'0 0.3
2017-Oct-14 07:00N 38°59' E 001°32'0 0.0
2017-Oct-13 16:01N 38°59' E 001°32'0 0.0
2017-Oct-13 15:59N 38°59' E 001°32'0 0.5
2017-Oct-13 15:30N 38°59' E 001°32'2 3.1
2017-Oct-13 14:54N 38°59' E 001°35'2 4.7
2017-Oct-13 14:30N 38°59' E 001°32'5 7.1
2017-Oct-13 13:50N 38°55' E 001°29'2 6.7
2017-Oct-13 13:30N 38°55' E 001°26'0 0.0
2017-Oct-13 12:35N 38°55' E 001°26'0 2.6
2017-Oct-13 12:30N 38°55' E 001°26'5 6.4
2017-Oct-13 11:41N 38°58' E 001°32'1 7.2
2017-Oct-13 11:29N 38°59' E 001°32'2 2.3
2017-Oct-13 10:46N 38°59' E 001°34'2 5.9
2017-Oct-13 10:29N 38°59' E 001°32'4 7.9
2017-Oct-13 09:56N 38°55' E 001°29'3 5.3
2017-Oct-13 09:27N 38°55' E 001°26'5 7.0
2017-Oct-13 08:43N 38°57' E 001°32'2 7.7
2017-Oct-13 08:30N 38°59' E 001°32'0 0.0
2017-Oct-12 16:04N 38°59' E 001°32'0 0.6
2017-Oct-12 16:00N 38°59' E 001°32'0 0.3
2017-Oct-12 15:29N 38°59' E 001°32'2 3.1
2017-Oct-12 14:53N 38°59' E 001°35'2 5.0
2017-Oct-12 14:30N 38°59' E 001°32'5 7.0
2017-Oct-12 13:49N 38°55' E 001°29'2 7.0
2017-Oct-12 13:30N 38°55' E 001°26'0 0.0
2017-Oct-12 12:35N 38°55' E 001°26'0 1.7
2017-Oct-12 12:30N 38°55' E 001°26'5 6.3
2017-Oct-12 11:41N 38°57' E 001°32'2 8.1
2017-Oct-12 11:29N 38°59' E 001°32'2 3.1
2017-Oct-12 10:49N 38°59' E 001°35'2 6.6
2017-Oct-12 10:30N 38°59' E 001°32'4 8.1
2017-Oct-12 09:59N 38°55' E 001°30'3 5.5
2017-Oct-12 09:30N 38°55' E 001°26'5 9.2
2017-Oct-12 08:58N 38°57' E 001°32'2 4.0
2017-Oct-12 08:29N 38°59' E 001°32'1 2.7
2017-Oct-12 08:00N 38°60' E 001°34'1 2.1
2017-Oct-12 07:28N 38°59' E 001°32'0 0.0
2017-Oct-11 17:33N 38°59' E 001°32'0 0.0
2017-Oct-11 17:30N 38°59' E 001°32'1 2.4
2017-Oct-11 16:59N 38°59' E 001°34'5 0.2
2017-Oct-10 13:57N 38°56' E 001°30'3 7.0
2017-Oct-10 13:28N 38°55' E 001°26'0 0.0
2017-Oct-10 12:33N 38°55' E 001°26'0 0.7
2017-Oct-10 12:30N 38°55' E 001°26'2 0.8
2017-Oct-10 09:54N 38°55' E 001°29'2 5.0
2017-Oct-10 09:29N 38°55' E 001°26'4 0.3
2017-Oct-09 16:05N 38°56' E 001°31'211.4
2017-Oct-09 15:54N 38°55' E 001°29'2 5.7
2017-Oct-09 15:29N 38°55' E 001°26'3 1.3
2017-Oct-09 12:57N 38°56' E 001°30'3 7.1
2017-Oct-09 12:29N 38°55' E 001°26'0 0.0
2017-Oct-09 11:30N 38°55' E 001°26'4 2.4
2017-Oct-09 09:59N 38°56' E 001°30'4 7.5
2017-Oct-09 09:30N 38°55' E 001°26'2 4.3
2017-Oct-09 08:59N 38°55' E 001°29'5 9.1
2017-Oct-09 08:28N 38°59' E 001°32'0 0.0
2017-Oct-09 08:00N 38°59' E 001°32'  
Track history (hours):
 
Tides and Currents Weather Stations Pressure Air Temp Water Temp Dewpoint Dewpoint Depression Visibility Wind Speed Wind Dir Waves Ship Positions

Santa Eulalia

Last reported at 2017-Oct-18 17:31 UTC. Time now 2017-Oct-18 22:37 UTC.
Position N 38°59' E 001°32'.

Length 18 m.

Type: Passenger vessel. MMSI: 224005530.

Date/timePositionNaut miles runAvg speedWind from/ knotsBaromVisibWave heightAir tempDewpointWater temp
2017-Oct-18 17:31N 38°59' E 001°32'0 0.0
2017-Oct-18 17:30N 38°59' E 001°32'1 2.4
2017-Oct-18 16:54N 38°59' E 001°34'4 7.7
2017-Oct-18 16:25N 38°56' E 001°32'6 0.8
2017-Oct-18 09:24N 38°51' E 001°27'511.4
2017-Oct-18 08:59N 38°55' E 001°31'4 7.8
2017-Oct-18 08:30N 38°59' E 001°32'2 2.2
2017-Oct-18 07:47N 38°59' E 001°34'2 5.6
2017-Oct-18 07:30N 38°59' E 001°32'2 3.5
2017-Oct-18 06:59N 38°57' E 001°32'2 0.1
2017-Oct-17 17:12N 38°59' E 001°32'1 3.5
2017-Oct-17 17:00N 38°59' E 001°33'1 1.8
2017-Oct-17 16:29N 38°59' E 001°32'4 7.3
2017-Oct-17 15:53N 38°55' E 001°29'3 6.9
2017-Oct-17 15:31N 38°55' E 001°26'4 7.9
2017-Oct-17 15:00N 38°56' E 001°31'3 5.9
2017-Oct-17 14:30N 38°59' E 001°32'5 7.1
2017-Oct-17 13:50N 38°55' E 001°29'2 6.4
2017-Oct-17 13:28N 38°55' E 001°26'0 0.0
2017-Oct-17 12:45N 38°55' E 001°26'0 0.2
2017-Oct-17 12:30N 38°55' E 001°26'5 6.4
2017-Oct-17 11:39N 38°58' E 001°32'1 9.2
2017-Oct-17 11:30N 38°59' E 001°32'2 2.2
2017-Oct-17 10:46N 38°59' E 001°34'2 5.9
2017-Oct-17 10:29N 38°59' E 001°32'4 7.7
2017-Oct-17 10:00N 38°56' E 001°30'3 6.3
2017-Oct-17 09:29N 38°55' E 001°26'5 7.4
2017-Oct-17 08:45N 38°58' E 001°32'1 4.9
2017-Oct-17 08:28N 38°59' E 001°32'0 0.4
2017-Oct-17 08:01N 38°59' E 001°32'0 0.0
2017-Oct-17 07:31N 38°59' E 001°32'0 0.0
2017-Oct-16 17:13N 38°59' E 001°32'0 1.6
2017-Oct-16 17:00N 38°59' E 001°33'1 1.1
2017-Oct-16 16:30N 38°59' E 001°32'2 0.9
2017-Oct-16 14:42N 38°57' E 001°32'2 8.0
2017-Oct-16 14:30N 38°59' E 001°32'0 0.1
2017-Oct-16 13:30N 38°59' E 001°32'6 3.4
2017-Oct-16 11:39N 38°55' E 001°26'1 7.8
2017-Oct-16 11:29N 38°54' E 001°28'5 8.6
2017-Oct-16 10:56N 38°57' E 001°32'0 0.4
2017-Oct-16 10:30N 38°57' E 001°32'4 7.6
2017-Oct-16 10:01N 38°55' E 001°29'1 2.8
2017-Oct-16 09:30N 38°55' E 001°27'5 6.9
2017-Oct-16 08:47N 38°57' E 001°32'2 5.9
2017-Oct-16 08:30N 38°59' E 001°32'1 2.3
2017-Oct-16 08:00N 38°59' E 001°34'1 1.9
2017-Oct-16 07:30N 38°59' E 001°32'0 0.0
2017-Oct-14 17:11N 38°59' E 001°32'1 4.1
2017-Oct-14 17:00N 38°59' E 001°33'1 2.0
2017-Oct-14 16:31N 38°59' E 001°32'2 2.6
2017-Oct-14 15:48N 38°59' E 001°35'2 6.2
2017-Oct-14 15:30N 38°59' E 001°32'3 5.5
2017-Oct-14 14:59N 38°56' E 001°31'4 8.8
2017-Oct-14 14:30N 38°55' E 001°26'6 6.5
2017-Oct-14 13:39N 38°58' E 001°32'1 6.2
2017-Oct-14 13:27N 38°59' E 001°32'1 0.8
2017-Oct-14 11:42N 38°59' E 001°34'1 6.7
2017-Oct-14 11:29N 38°59' E 001°32'2 2.2
2017-Oct-14 10:45N 38°59' E 001°34'2 6.0
2017-Oct-14 10:29N 38°59' E 001°32'5 6.8
2017-Oct-14 09:49N 38°55' E 001°29'2 7.3
2017-Oct-14 09:29N 38°55' E 001°26'5 6.6
2017-Oct-14 08:39N 38°58' E 001°32'1 9.6
2017-Oct-14 08:30N 38°59' E 001°32'2 2.0
2017-Oct-14 07:43N 38°59' E 001°34'1 7.2
2017-Oct-14 07:30N 38°59' E 001°32'0 0.3
2017-Oct-14 07:00N 38°59' E 001°32'0 0.0
2017-Oct-13 16:01N 38°59' E 001°32'0 0.0
2017-Oct-13 15:59N 38°59' E 001°32'0 0.5
2017-Oct-13 15:30N 38°59' E 001°32'2 3.1
2017-Oct-13 14:54N 38°59' E 001°35'2 4.7
2017-Oct-13 14:30N 38°59' E 001°32'5 7.1
2017-Oct-13 13:50N 38°55' E 001°29'2 6.7
2017-Oct-13 13:30N 38°55' E 001°26'0 0.0
2017-Oct-13 12:35N 38°55' E 001°26'0 2.6
2017-Oct-13 12:30N 38°55' E 001°26'5 6.4
2017-Oct-13 11:41N 38°58' E 001°32'1 7.2
2017-Oct-13 11:29N 38°59' E 001°32'2 2.3
2017-Oct-13 10:46N 38°59' E 001°34'2 5.9
2017-Oct-13 10:29N 38°59' E 001°32'4 7.9
2017-Oct-13 09:56N 38°55' E 001°29'3 5.3
2017-Oct-13 09:27N 38°55' E 001°26'5 7.0
2017-Oct-13 08:43N 38°57' E 001°32'2 7.7
2017-Oct-13 08:30N 38°59' E 001°32'0 0.0
2017-Oct-12 16:04N 38°59' E 001°32'0 0.6
2017-Oct-12 16:00N 38°59' E 001°32'0 0.3
2017-Oct-12 15:29N 38°59' E 001°32'2 3.1
2017-Oct-12 14:53N 38°59' E 001°35'2 5.0
2017-Oct-12 14:30N 38°59' E 001°32'5 7.0
2017-Oct-12 13:49N 38°55' E 001°29'2 7.0
2017-Oct-12 13:30N 38°55' E 001°26'0 0.0
2017-Oct-12 12:35N 38°55' E 001°26'0 1.7
2017-Oct-12 12:30N 38°55' E 001°26'5 6.3
2017-Oct-12 11:41N 38°57' E 001°32'2 8.1
2017-Oct-12 11:29N 38°59' E 001°32'2 3.1
2017-Oct-12 10:49N 38°59' E 001°35'2 6.6
2017-Oct-12 10:30N 38°59' E 001°32'4 8.1
2017-Oct-12 09:59N 38°55' E 001°30'3 5.5
2017-Oct-12 09:30N 38°55' E 001°26'5 9.2
2017-Oct-12 08:58N 38°57' E 001°32'2 4.0
2017-Oct-12 08:29N 38°59' E 001°32'1 2.7
2017-Oct-12 08:00N 38°60' E 001°34'1 2.1
2017-Oct-12 07:28N 38°59' E 001°32'0 0.0
2017-Oct-11 17:33N 38°59' E 001°32'0 0.0
2017-Oct-11 17:30N 38°59' E 001°32'1 2.4
2017-Oct-11 16:59N 38°59' E 001°34'5 0.2
2017-Oct-10 13:57N 38°56' E 001°30'3 7.0
2017-Oct-10 13:28N 38°55' E 001°26'0 0.0
2017-Oct-10 12:33N 38°55' E 001°26'0 0.7
2017-Oct-10 12:30N 38°55' E 001°26'2 0.8
2017-Oct-10 09:54N 38°55' E 001°29'2 5.0
2017-Oct-10 09:29N 38°55' E 001°26'4 0.3
2017-Oct-09 16:05N 38°56' E 001°31'211.4
2017-Oct-09 15:54N 38°55' E 001°29'2 5.7
2017-Oct-09 15:29N 38°55' E 001°26'3 1.3
2017-Oct-09 12:57N 38°56' E 001°30'3 7.1
2017-Oct-09 12:29N 38°55' E 001°26'0 0.0
2017-Oct-09 11:30N 38°55' E 001°26'4 2.4
2017-Oct-09 09:59N 38°56' E 001°30'4 7.5
2017-Oct-09 09:30N 38°55' E 001°26'2 4.3
2017-Oct-09 08:59N 38°55' E 001°29'5 9.1
2017-Oct-09 08:28N 38°59' E 001°32'0 0.0
2017-Oct-09 08:00N 38°59' E 001°32'  

Dump ship's entire track history